Budapest, Hungary

8:31 AM CEST on September 05, 2015 (GMT +0200)
Budapest - Taborhegy | | Change Station
CLOSE
Current Station
Personal Weather Station
Location: Budapest, HUNGARY
Elevation: 492 ft
Nearby Weather Stations

Elev 492 ft 47.55 °N, 19.03 °E | Updated 4 minutes ago

Rain Showers
Showers Rain
59.8 °F
Feels Like 59.8 °F
N
0.0
Wind Variable Wind from WNW
Gusts 0.0 mph

Today
High -- | Low -- °F
--% Chance of Precip.
Yesterday
High -- | Low -- °F
Precip. -- in
6:07 AM 7:17 PM
Waning Gibbous, 52% visible
Pressure 29.92 in
Visibility 5.0 miles
Clouds Few 700 ft
Scattered Clouds 2900 ft
Mostly Cloudy 3600 ft
Dew Point 57.0 °F
Humidity 90%
Rainfall 0.33 in
Snow Depth Not available.
UV 0.0 out of 12
Pollen Not available.
Air Quality Not available.
Flu Activity Not available.
METAR LHBP 050630Z 32005KT 8000 SHRA FEW007 SCT029 BKN036 15/14 Q1013 NOSIG
Pressure 29.92 in
Visibility 5.0 miles
Clouds Few 700 ft
Scattered Clouds 2900 ft
Mostly Cloudy 3600 ft
Dew Point 57.0 °F
Humidity 90%
Rainfall 0.33 in
Snow Depth Not available.
UV 0.0 out of 12
Pollen Not available.
Air Quality Not available.
Flu Activity Not available.
METAR LHBP 050630Z 32005KT 8000 SHRA FEW007 SCT029 BKN036 15/14 Q1013 NOSIG

10-Day Weather Forecast

×

Almanac

Astronomy

Sep. 05, 2015 Rise Set
Actual Time
Civil Twilight
Nautical Twilight
Astronomical Twilight
Moon
Length of Visible Light
Length of Day
Tomorrow will be .
, % of the Moon is Illuminated

Today's Extremes

Country Highs Country Lows

Community

WunderPhotos

Upload Photos

1,852,430 photos uploaded!

WunderBlogs® & News

Nearby

Air Quality

  Air Quality AQ Index Pollutant
Not available.

Snow Depth

Station Depth Elevation

Earthquake Activity

City Distance Mag. Time & Date
Minimum magnitude displayed is 2.5.

Coastal Water Temperatures

Place Temperature

Stations

Nearby Weather Stations

Station Location Temp. Windchill Dew Point Humidity Wind Precip. Elev Updated Type